createdAt,value
2019-05-13T00:00:24.359Z,82.10
2019-05-13T00:02:54.406Z,81.80
2019-05-13T00:05:23.445Z,81.70
2019-05-13T00:07:53.982Z,81.70
2019-05-13T00:10:24.288Z,81.50
2019-05-13T00:12:53.930Z,81.90
2019-05-13T00:15:24.337Z,82.20
2019-05-13T00:17:54.355Z,82.40
2019-05-13T00:20:24.115Z,82.30
2019-05-13T00:22:53.857Z,82.50
2019-05-13T00:25:24.191Z,82.80
2019-05-13T00:27:53.703Z,82.50
2019-05-13T00:30:23.515Z,82.70
2019-05-13T00:32:54.447Z,82.80
2019-05-13T00:35:23.310Z,83.00
2019-05-13T00:37:54.165Z,83.10
2019-05-13T00:40:24.034Z,83.00
2019-05-13T00:42:54.419Z,82.20
2019-05-13T00:45:24.515Z,81.80
2019-05-13T00:47:53.681Z,82.00
2019-05-13T00:50:24.086Z,82.10
2019-05-13T00:52:53.577Z,82.00
2019-05-13T00:55:23.834Z,82.20
2019-05-13T01:00:24.362Z,80.20
2019-05-13T01:02:53.354Z,79.10
2019-05-13T01:05:23.394Z,78.30
2019-05-13T01:07:53.725Z,78.00
2019-05-13T01:10:23.770Z,78.20
2019-05-13T01:12:53.927Z,78.40
2019-05-13T01:15:24.664Z,78.60
2019-05-13T01:17:53.469Z,78.90
2019-05-13T01:20:23.574Z,78.90
2019-05-13T01:22:54.112Z,79.00
2019-05-13T01:25:24.465Z,79.50
2019-05-13T01:27:53.789Z,79.40
2019-05-13T01:30:23.784Z,79.50
2019-05-13T01:32:54.018Z,79.80
2019-05-13T01:35:23.636Z,80.20
2019-05-13T01:37:53.873Z,80.00
2019-05-13T01:40:23.971Z,80.70
2019-05-13T01:42:54.196Z,81.10
2019-05-13T01:45:24.071Z,81.00
2019-05-13T01:47:54.438Z,80.60
2019-05-13T01:50:24.171Z,81.40
2019-05-13T01:52:53.360Z,82.50
2019-05-13T01:55:24.320Z,83.20
2019-05-13T01:57:53.376Z,84.10
2019-05-13T02:00:24.181Z,84.30
2019-05-13T02:02:54.468Z,84.10
2019-05-13T02:05:24.259Z,83.50
2019-05-13T02:08:00.259Z,84.10
2019-05-13T02:10:36.875Z,84.00
2019-05-13T02:13:05.419Z,83.80
2019-05-13T02:15:33.956Z,83.90
2019-05-13T02:18:03.986Z,84.50
2019-05-13T02:20:33.515Z,82.10
2019-05-13T02:23:03.995Z,82.70
2019-05-13T02:25:34.053Z,82.80
2019-05-13T02:28:09.367Z,83.40
2019-05-13T02:30:34.924Z,84.30
2019-05-13T02:33:03.511Z,85.30
2019-05-13T02:35:32.711Z,85.00
2019-05-13T02:38:17.430Z,85.80
2019-05-13T02:40:32.687Z,85.80
2019-05-13T02:43:02.906Z,86.50
2019-05-13T02:45:33.412Z,87.10
2019-05-13T02:48:03.417Z,86.60
2019-05-13T02:50:33.744Z,86.20
2019-05-13T02:53:02.631Z,86.80
2019-05-13T02:55:32.869Z,86.50
2019-05-13T02:58:03.312Z,86.60
2019-05-13T03:00:32.857Z,87.00
2019-05-13T03:03:03.317Z,87.50
2019-05-13T03:05:32.129Z,87.50
2019-05-13T03:08:03.487Z,87.50
2019-05-13T03:10:33.097Z,87.30
2019-05-13T03:13:03.600Z,87.50
2019-05-13T03:15:33.209Z,87.70
2019-05-13T03:18:03.902Z,87.00
2019-05-13T03:20:33.479Z,87.40
2019-05-13T03:23:03.061Z,88.10
2019-05-13T03:25:33.063Z,87.90
2019-05-13T03:28:03.094Z,88.30
2019-05-13T03:30:35.443Z,88.10
2019-05-13T03:33:10.105Z,88.40
2019-05-13T03:35:36.581Z,88.40
2019-05-13T03:38:03.598Z,88.20
2019-05-13T03:40:34.055Z,87.90
2019-05-13T03:43:03.196Z,88.50
2019-05-13T03:45:33.893Z,88.40
2019-05-13T03:48:04.275Z,87.80
2019-05-13T03:50:34.715Z,88.00
2019-05-13T03:53:03.354Z,87.40
2019-05-13T03:55:33.108Z,87.70
2019-05-13T03:58:03.009Z,87.90
2019-05-13T04:00:32.363Z,87.90
2019-05-13T04:03:03.385Z,87.90
2019-05-13T04:05:33.414Z,88.10
2019-05-13T04:08:03.140Z,88.30
2019-05-13T04:10:33.344Z,87.50
2019-05-13T04:13:03.773Z,87.40
2019-05-13T04:15:32.977Z,87.50
2019-05-13T04:18:02.923Z,88.10
2019-05-13T04:20:33.280Z,87.80
2019-05-13T04:23:03.118Z,87.80
2019-05-13T04:25:32.319Z,86.80
2019-05-13T04:28:03.264Z,87.30
2019-05-13T04:30:33.054Z,87.00
2019-05-13T04:33:02.703Z,86.90
2019-05-13T04:35:33.343Z,85.80
2019-05-13T04:38:03.419Z,86.60
2019-05-13T04:43:02.846Z,86.00
2019-05-13T04:45:33.014Z,86.50
2019-05-13T04:48:03.253Z,86.50
2019-05-13T04:50:33.056Z,86.70
2019-05-13T04:53:03.260Z,86.60
2019-05-13T04:55:33.266Z,86.80
2019-05-13T04:58:03.393Z,87.40
2019-05-13T05:01:04.694Z,87.40
2019-05-13T05:03:44.727Z,88.50
2019-05-13T05:06:16.281Z,89.20
2019-05-13T05:09:05.796Z,89.60
2019-05-13T05:11:58.289Z,90.10
2019-05-13T05:14:35.761Z,89.60
2019-05-13T05:17:23.949Z,89.70
2019-05-13T05:19:55.575Z,90.10
2019-05-13T05:22:57.117Z,90.10
2019-05-13T05:25:32.338Z,90.00
2019-05-13T05:28:11.190Z,90.60
2019-05-13T05:30:58.945Z,90.70
2019-05-13T05:33:33.576Z,90.50
2019-05-13T05:36:13.605Z,90.40
2019-05-13T05:38:53.743Z,90.70
2019-05-13T05:41:25.103Z,90.60
2019-05-13T05:43:55.986Z,90.40
2019-05-13T05:46:26.526Z,90.30
2019-05-13T05:48:55.880Z,90.10
2019-05-13T05:51:25.704Z,90.00
2019-05-13T05:53:57.489Z,89.50
2019-05-13T05:56:29.177Z,89.50
2019-05-13T05:59:02.760Z,89.70
2019-05-13T06:01:32.525Z,90.00
2019-05-13T06:04:01.548Z,88.70
2019-05-13T06:06:32.942Z,88.70
2019-05-13T06:09:01.912Z,89.20
2019-05-13T06:11:32.676Z,87.80
2019-05-13T06:14:02.386Z,88.50
2019-05-13T06:16:32.037Z,88.70
2019-05-13T06:19:01.549Z,88.30
2019-05-13T06:21:32.096Z,88.00
2019-05-13T06:24:02.737Z,88.00
2019-05-13T06:26:31.368Z,87.40
2019-05-13T06:29:02.709Z,88.00
2019-05-13T06:31:32.526Z,87.60
2019-05-13T06:34:02.052Z,87.40
2019-05-13T06:36:31.788Z,86.60
2019-05-13T06:39:02.234Z,86.30
2019-05-13T06:41:32.376Z,86.00
2019-05-13T06:44:02.106Z,86.10
2019-05-13T06:46:32.357Z,85.20
2019-05-13T06:49:02.929Z,85.60
2019-05-13T06:51:31.533Z,86.40
2019-05-13T06:54:02.387Z,84.50
2019-05-13T06:56:32.278Z,85.10
2019-05-13T06:59:01.562Z,85.60
2019-05-13T07:01:32.345Z,85.70
2019-05-13T07:04:02.356Z,86.50
2019-05-13T07:06:32.277Z,85.60
2019-05-13T07:09:01.522Z,85.60
2019-05-13T07:11:31.419Z,85.90
2019-05-13T07:14:02.431Z,85.80
2019-05-13T07:16:31.736Z,86.10
2019-05-13T07:19:02.487Z,85.70
2019-05-13T07:21:32.334Z,84.80
2019-05-13T07:24:02.233Z,85.30
2019-05-13T07:26:31.538Z,85.60
2019-05-13T07:29:03.289Z,85.60
2019-05-13T07:31:32.330Z,85.10
2019-05-13T07:34:02.259Z,84.80
2019-05-13T07:36:31.779Z,83.90
2019-05-13T07:39:01.936Z,84.60
2019-05-13T07:41:36.438Z,85.00
2019-05-13T07:44:02.566Z,84.60
2019-05-13T07:46:32.295Z,82.90
2019-05-13T07:49:02.095Z,82.10
2019-05-13T07:51:31.599Z,81.80
2019-05-13T07:54:02.244Z,81.20
2019-05-13T07:56:32.418Z,80.90
2019-05-13T07:59:01.936Z,81.50
2019-05-13T08:01:32.735Z,80.90
2019-05-13T08:04:02.225Z,80.00
2019-05-13T08:06:32.351Z,80.70
2019-05-13T08:09:01.863Z,81.00
2019-05-13T08:11:36.782Z,81.50
2019-05-13T08:14:01.902Z,81.60
2019-05-13T08:16:32.322Z,81.20
2019-05-13T08:19:01.817Z,81.80
2019-05-13T08:21:32.313Z,80.30
2019-05-13T08:24:02.702Z,79.20
2019-05-13T08:26:32.313Z,80.40
2019-05-13T08:29:04.873Z,78.90
2019-05-13T08:31:32.295Z,79.10
2019-05-13T08:34:02.398Z,79.90
2019-05-13T08:36:32.671Z,79.70
2019-05-13T08:39:02.633Z,79.00
2019-05-13T08:41:32.189Z,79.60
2019-05-13T08:44:01.739Z,78.50
2019-05-13T08:46:32.280Z,77.40
2019-05-13T08:49:03.839Z,78.00
2019-05-13T08:51:34.454Z,77.00
2019-05-13T08:54:02.400Z,75.90
2019-05-13T08:56:32.644Z,76.30
2019-05-13T08:59:01.403Z,76.90
2019-05-13T09:01:31.894Z,76.70
2019-05-13T09:04:02.256Z,75.90
2019-05-13T09:06:31.245Z,76.30
2019-05-13T09:09:01.761Z,75.90
2019-05-13T09:11:31.476Z,75.30
2019-05-13T09:14:02.324Z,73.40
2019-05-13T09:16:32.010Z,74.00
2019-05-13T09:19:03.862Z,74.20
2019-05-13T09:21:31.781Z,72.80
2019-05-13T09:24:02.520Z,71.50
2019-05-13T09:26:31.701Z,70.00
2019-05-13T09:29:01.586Z,70.70
2019-05-13T09:31:32.375Z,69.20
2019-05-13T09:34:01.467Z,68.80
2019-05-13T09:36:32.388Z,68.10
2019-05-13T09:39:02.083Z,67.50
2019-05-13T09:41:33.100Z,67.90
2019-05-13T09:44:02.258Z,66.90
2019-05-13T09:46:31.858Z,66.10
2019-05-13T09:49:12.925Z,65.80
2019-05-13T09:51:32.395Z,66.20
2019-05-13T09:54:01.481Z,66.70
2019-05-13T09:56:31.908Z,67.10
2019-05-13T09:59:01.713Z,67.20
2019-05-13T10:01:31.969Z,68.80
2019-05-13T10:04:03.046Z,66.80
2019-05-13T10:06:32.714Z,67.20
2019-05-13T10:09:02.358Z,67.10
2019-05-13T10:11:31.330Z,67.40
2019-05-13T10:14:02.116Z,68.40
2019-05-13T10:16:31.460Z,68.70
2019-05-13T10:19:01.589Z,69.20
2019-05-13T10:21:32.693Z,69.60
2019-05-13T10:24:03.046Z,69.10
2019-05-13T10:26:32.240Z,69.50
2019-05-13T10:29:01.560Z,68.30
2019-05-13T10:31:31.416Z,68.90
2019-05-13T10:34:02.328Z,66.50
2019-05-13T10:36:30.842Z,67.10
2019-05-13T10:39:01.417Z,67.20
2019-05-13T10:41:29.593Z,64.80
2019-05-13T10:43:58.160Z,64.20
2019-05-13T10:46:26.699Z,63.30
2019-05-13T10:48:55.224Z,61.90
2019-05-13T10:51:23.801Z,61.20
2019-05-13T10:53:53.490Z,61.80
2019-05-13T10:56:22.561Z,62.00
2019-05-13T10:58:53.370Z,63.10
2019-05-13T11:01:22.596Z,62.30
2019-05-13T11:03:52.558Z,62.20
2019-05-13T11:06:21.999Z,63.70
2019-05-13T11:08:53.121Z,63.80
2019-05-13T11:11:22.043Z,62.70
2019-05-13T11:13:58.330Z,61.70
2019-05-13T11:16:22.624Z,61.50
2019-05-13T11:18:51.993Z,61.70
2019-05-13T11:21:22.185Z,63.50
2019-05-13T11:23:51.769Z,64.10
2019-05-13T11:26:21.965Z,64.40
2019-05-13T11:28:52.186Z,64.70
2019-05-13T11:31:22.442Z,64.10
2019-05-13T11:33:52.001Z,63.80
2019-05-13T11:36:23.320Z,64.00
2019-05-13T11:38:53.167Z,64.00
2019-05-13T11:41:22.841Z,64.50
2019-05-13T11:44:11.077Z,64.90
2019-05-13T11:46:22.608Z,65.70
2019-05-13T11:48:52.036Z,64.60
2019-05-13T11:51:24.129Z,64.40
2019-05-13T11:53:52.426Z,64.70
2019-05-13T11:56:23.001Z,64.70
2019-05-13T11:58:53.435Z,63.40
2019-05-13T12:01:22.852Z,63.30
2019-05-13T12:03:53.049Z,62.10
2019-05-13T12:06:23.522Z,62.00
2019-05-13T12:08:55.300Z,62.30
2019-05-13T12:11:22.628Z,63.20
2019-05-13T12:13:52.741Z,62.80
2019-05-13T12:16:22.847Z,63.10
2019-05-13T12:18:52.863Z,63.10
2019-05-13T12:21:24.321Z,61.80
2019-05-13T12:23:53.132Z,62.40
2019-05-13T12:26:23.763Z,62.80
2019-05-13T12:28:53.496Z,62.80
2019-05-13T12:31:22.575Z,62.20
2019-05-13T12:33:52.286Z,62.40
2019-05-13T12:36:23.499Z,62.00
2019-05-13T12:38:53.696Z,62.20
2019-05-13T12:41:23.056Z,61.30
2019-05-13T12:46:24.824Z,60.00
2019-05-13T12:48:52.204Z,59.80
2019-05-13T12:51:22.730Z,59.10
2019-05-13T12:53:52.787Z,58.70
2019-05-13T12:56:23.489Z,58.80
2019-05-13T12:58:52.340Z,58.30
2019-05-13T13:01:23.974Z,58.40
2019-05-13T13:03:51.408Z,58.40
2019-05-13T13:06:30.447Z,59.80
2019-05-13T13:08:50.930Z,60.60
2019-05-13T13:11:22.549Z,62.40
2019-05-13T13:13:58.645Z,62.40
2019-05-13T13:16:20.117Z,63.00
2019-05-13T13:18:51.908Z,63.80
2019-05-13T13:21:18.922Z,64.00
2019-05-13T13:23:47.451Z,64.90
2019-05-13T13:26:16.522Z,65.20
2019-05-13T13:28:45.375Z,66.10
2019-05-13T13:31:13.951Z,67.00
2019-05-13T13:33:44.460Z,66.60
2019-05-13T13:36:15.627Z,67.00
2019-05-13T13:38:44.303Z,67.60
2019-05-13T13:41:22.062Z,67.80
2019-05-13T13:43:43.411Z,68.50
2019-05-13T13:46:32.667Z,68.90
2019-05-13T13:48:43.713Z,68.90
2019-05-13T13:51:14.035Z,69.40
2019-05-13T13:53:44.542Z,70.10
2019-05-13T13:56:14.379Z,69.80
2019-05-13T13:58:44.211Z,70.00
2019-05-13T14:01:18.555Z,71.30
2019-05-13T14:03:46.092Z,71.10
2019-05-13T14:06:13.419Z,68.20
2019-05-13T14:07:13.205Z,60.70
2019-05-13T14:08:42.150Z,68.90
2019-05-13T14:11:11.695Z,68.80
2019-05-13T14:13:42.523Z,69.20
2019-05-13T14:16:24.688Z,69.30
2019-05-13T14:18:42.076Z,68.80
2019-05-13T14:21:10.920Z,66.90
2019-05-13T14:23:42.405Z,67.40
2019-05-13T14:26:09.995Z,67.10
2019-05-13T14:28:38.487Z,66.00
2019-05-13T14:31:07.071Z,66.20
2019-05-13T14:33:35.836Z,66.70
2019-05-13T14:36:04.569Z,67.10
2019-05-13T14:38:33.439Z,67.60
2019-05-13T14:41:03.409Z,65.60
2019-05-13T14:43:32.157Z,66.10
2019-05-13T14:46:02.490Z,65.70
2019-05-13T14:48:33.086Z,66.00
2019-05-13T14:51:02.116Z,65.50
2019-05-13T14:53:32.177Z,65.40
2019-05-13T14:56:03.091Z,65.40
2019-05-13T14:58:32.550Z,65.90
2019-05-13T15:01:14.855Z,66.30
2019-05-13T15:03:32.666Z,66.50
2019-05-13T15:06:01.997Z,66.30
2019-05-13T15:08:32.840Z,66.60
2019-05-13T15:11:01.877Z,66.90
2019-05-13T15:13:31.876Z,67.10
2019-05-13T15:16:01.360Z,67.00
2019-05-13T15:18:32.514Z,66.50
2019-05-13T15:21:01.755Z,67.20
2019-05-13T15:23:31.700Z,67.80
2019-05-13T15:26:02.268Z,67.40
2019-05-13T15:28:31.863Z,68.00
2019-05-13T15:31:00.834Z,68.20
2019-05-13T15:33:32.265Z,68.90
2019-05-13T15:36:01.667Z,69.30
2019-05-13T15:38:32.035Z,69.90
2019-05-13T15:41:01.859Z,69.60
2019-05-13T15:43:31.908Z,69.90
2019-05-13T15:46:01.877Z,69.80
2019-05-13T15:48:31.499Z,69.50
2019-05-13T15:51:02.094Z,69.50
2019-05-13T15:53:32.078Z,69.80
2019-05-13T15:56:02.731Z,70.30
2019-05-13T15:59:09.005Z,70.00
2019-05-13T16:01:02.902Z,70.50
2019-05-13T16:03:31.656Z,70.50
2019-05-13T16:06:01.649Z,70.80
2019-05-13T16:08:31.815Z,71.30
2019-05-13T16:11:02.178Z,70.50
2019-05-13T16:13:31.252Z,70.90
2019-05-13T16:16:01.572Z,71.40
2019-05-13T16:18:31.693Z,71.60
2019-05-13T16:21:01.731Z,71.80
2019-05-13T16:23:32.309Z,70.60
2019-05-13T16:26:01.574Z,71.10
2019-05-13T16:28:32.621Z,71.60
2019-05-13T16:31:02.326Z,72.00
2019-05-13T16:33:31.464Z,70.70
2019-05-13T16:36:02.643Z,71.30
2019-05-13T16:38:32.846Z,71.80
2019-05-13T16:41:00.671Z,71.80
2019-05-13T16:43:31.792Z,71.60
2019-05-13T16:46:00.243Z,71.00
2019-05-13T16:48:28.789Z,71.60
2019-05-13T16:50:57.527Z,71.70
2019-05-13T16:53:26.229Z,72.20
2019-05-13T16:55:55.115Z,72.40
2019-05-13T16:58:24.808Z,72.80
2019-05-13T17:00:55.844Z,72.30
2019-05-13T17:03:24.029Z,72.90
2019-05-13T17:05:52.536Z,74.00
2019-05-13T17:08:21.067Z,73.70
2019-05-13T17:10:51.465Z,73.60
2019-05-13T17:13:22.165Z,73.60
2019-05-13T17:15:52.264Z,73.90
2019-05-13T17:18:21.949Z,74.10
2019-05-13T17:20:52.079Z,74.50
2019-05-13T17:23:20.931Z,74.80
2019-05-13T17:25:51.786Z,74.60
2019-05-13T17:28:21.837Z,74.70
2019-05-13T17:30:51.955Z,75.20
2019-05-13T17:33:22.883Z,75.10
2019-05-13T17:35:50.502Z,75.30
2019-05-13T17:38:19.028Z,75.30
2019-05-13T17:40:49.987Z,75.50
2019-05-13T17:43:17.770Z,75.50
2019-05-13T17:45:46.398Z,75.70
2019-05-13T17:48:26.034Z,76.00
2019-05-13T17:50:45.200Z,76.10
2019-05-13T17:53:13.693Z,76.50
2019-05-13T17:55:42.259Z,77.00
2019-05-13T17:58:11.641Z,77.20
2019-05-13T18:00:41.498Z,77.50
2019-05-13T18:03:11.338Z,78.00
2019-05-13T18:05:41.915Z,78.30
2019-05-13T18:08:11.247Z,78.30
2019-05-13T18:10:41.981Z,78.40
2019-05-13T18:13:12.626Z,78.20
2019-05-13T18:15:40.912Z,78.00
2019-05-13T18:18:11.832Z,78.10
2019-05-13T18:20:41.512Z,77.70
2019-05-13T18:23:12.176Z,77.60
2019-05-13T18:25:42.209Z,77.80
2019-05-13T18:28:27.182Z,78.00
2019-05-13T18:30:41.153Z,77.60
2019-05-13T18:33:11.642Z,77.40
2019-05-13T18:35:41.901Z,77.40
2019-05-13T18:38:12.000Z,77.20
2019-05-13T18:40:41.979Z,77.40
2019-05-13T18:43:10.692Z,77.10
2019-05-13T18:45:39.197Z,77.70
2019-05-13T18:48:09.375Z,77.80
2019-05-13T18:50:38.213Z,78.10
2019-05-13T18:53:06.748Z,78.70
2019-05-13T18:55:35.219Z,79.40
2019-05-13T18:58:04.032Z,79.70
2019-05-13T19:00:32.610Z,79.80
2019-05-13T19:03:01.444Z,80.10
2019-05-13T19:05:31.710Z,81.00
2019-05-13T19:08:01.862Z,81.10
2019-05-13T19:10:31.292Z,81.50
2019-05-13T19:13:01.739Z,81.30
2019-05-13T19:15:31.673Z,82.00
2019-05-13T19:18:00.533Z,81.90
2019-05-13T19:20:31.211Z,82.60
2019-05-13T19:23:01.121Z,82.70
2019-05-13T19:25:31.409Z,83.00
2019-05-13T19:28:02.232Z,83.20
2019-05-13T19:30:31.788Z,83.90
2019-05-13T19:33:01.374Z,83.70
2019-05-13T19:35:32.155Z,83.70
2019-05-13T19:38:01.673Z,84.20
2019-05-13T19:40:31.213Z,83.70
2019-05-13T19:43:01.589Z,83.70
2019-05-13T19:45:32.245Z,83.80
2019-05-13T19:48:01.270Z,83.60
2019-05-13T19:50:31.554Z,83.70
2019-05-13T19:53:01.275Z,83.00
2019-05-13T19:55:30.001Z,82.70
2019-05-13T19:57:58.590Z,82.00
2019-05-13T20:00:27.120Z,82.10
2019-05-13T20:02:55.701Z,81.10
2019-05-13T20:05:24.331Z,80.00
2019-05-13T20:07:53.115Z,80.70
2019-05-13T20:10:21.678Z,80.10
2019-05-13T20:12:51.356Z,79.70
2019-05-13T20:15:21.963Z,79.20
2019-05-13T20:17:52.079Z,78.70
2019-05-13T20:20:21.288Z,78.30
2019-05-13T20:22:51.794Z,78.40
2019-05-13T20:25:21.754Z,77.90
2019-05-13T20:27:51.552Z,77.50
2019-05-13T20:30:21.940Z,77.80
2019-05-13T20:32:51.541Z,77.90
2019-05-13T20:35:21.919Z,77.90
2019-05-13T20:37:51.619Z,78.00
2019-05-13T20:40:22.069Z,77.30
2019-05-13T20:42:51.599Z,77.80
2019-05-13T20:45:22.347Z,78.40
2019-05-13T20:47:50.455Z,78.50
2019-05-13T20:50:21.520Z,78.40
2019-05-13T20:52:51.492Z,78.60
2019-05-13T20:55:21.806Z,78.40
2019-05-13T20:57:52.808Z,78.60
2019-05-13T21:00:20.418Z,78.70
2019-05-13T21:02:48.943Z,79.00
2019-05-13T21:05:17.509Z,79.10
2019-05-13T21:07:46.026Z,78.70
2019-05-13T21:10:15.220Z,78.70
2019-05-13T21:12:43.791Z,79.10
2019-05-13T21:15:13.077Z,79.00
2019-05-13T21:17:41.855Z,79.20
2019-05-13T21:20:19.472Z,79.20
2019-05-13T21:22:42.411Z,79.20
2019-05-13T21:25:12.073Z,78.40
2019-05-13T21:27:42.123Z,78.30
2019-05-13T21:30:11.949Z,78.90
2019-05-13T21:32:40.598Z,78.30
2019-05-13T21:35:11.641Z,79.70
2019-05-13T21:37:39.739Z,79.00
2019-05-13T21:40:11.163Z,79.00
2019-05-13T21:42:41.674Z,79.00
2019-05-13T21:45:11.146Z,79.20
2019-05-13T21:47:40.012Z,79.60
2019-05-13T21:50:11.362Z,79.20
2019-05-13T21:52:41.808Z,79.30
2019-05-13T21:55:11.370Z,79.50
2019-05-13T21:57:41.535Z,79.80
2019-05-13T22:00:13.255Z,79.60
2019-05-13T22:02:41.805Z,79.70
2019-05-13T22:05:11.697Z,79.80
2019-05-13T22:07:42.064Z,79.10
2019-05-13T22:10:11.359Z,79.70
2019-05-13T22:12:41.456Z,79.60
2019-05-13T22:15:10.632Z,79.80
2019-05-13T22:17:39.166Z,79.80
2019-05-13T22:20:09.038Z,80.00
2019-05-13T22:22:37.666Z,80.10
2019-05-13T22:25:07.931Z,79.60
2019-05-13T22:27:36.461Z,79.70
2019-05-13T22:30:06.826Z,79.80
2019-05-13T22:32:35.386Z,79.80
2019-05-13T22:35:05.182Z,79.80
2019-05-13T22:37:33.919Z,80.20
2019-05-13T22:40:04.187Z,80.20
2019-05-13T22:42:32.713Z,80.30
2019-05-13T22:45:02.906Z,80.40
2019-05-13T22:47:31.699Z,80.00
2019-05-13T22:50:01.997Z,79.70
2019-05-13T22:52:31.252Z,79.60
2019-05-13T22:55:02.302Z,79.60
2019-05-13T22:57:31.311Z,80.20
2019-05-13T23:00:00.267Z,80.30
2019-05-13T23:02:28.878Z,80.20
2019-05-13T23:04:57.749Z,80.10
2019-05-13T23:07:26.313Z,80.30
2019-05-13T23:09:54.841Z,80.30
2019-05-13T23:12:23.363Z,80.50
2019-05-13T23:14:52.140Z,79.30
2019-05-13T23:17:21.565Z,79.90
2019-05-13T23:19:52.257Z,80.00
2019-05-13T23:22:20.816Z,80.10
2019-05-13T23:24:49.447Z,80.40
2019-05-13T23:27:18.032Z,81.00
2019-05-13T23:29:46.699Z,81.20
2019-05-13T23:32:15.213Z,81.40
2019-05-13T23:34:43.824Z,81.60
2019-05-13T23:37:12.356Z,81.70
2019-05-13T23:39:41.669Z,82.40
2019-05-13T23:42:12.253Z,82.00
2019-05-13T23:44:41.460Z,81.80
2019-05-13T23:47:11.415Z,82.40
2019-05-13T23:49:42.235Z,83.00
2019-05-13T23:52:11.651Z,82.50
2019-05-13T23:54:42.415Z,83.10
2019-05-13T23:57:11.759Z,83.40
2019-05-13T23:59:41.867Z,83.30
